sensor_id;sensor_type;location;lat;lon;timestamp;temperature;humidity
68764;DHT22;55754;52.038;5.566;2022-07-23T00:01:21;18.60;67.20
68764;DHT22;55754;52.038;5.566;2022-07-23T00:03:46;18.40;67.50
68764;DHT22;55754;52.038;5.566;2022-07-23T00:06:12;18.40;67.90
68764;DHT22;55754;52.038;5.566;2022-07-23T00:08:38;18.40;68.20
68764;DHT22;55754;52.038;5.566;2022-07-23T00:11:04;18.30;68.20
68764;DHT22;55754;52.038;5.566;2022-07-23T00:13:29;18.20;68.30
68764;DHT22;55754;52.038;5.566;2022-07-23T00:15:55;18.10;68.50
68764;DHT22;55754;52.038;5.566;2022-07-23T00:18:21;18.10;68.60
68764;DHT22;55754;52.038;5.566;2022-07-23T00:20:47;18.10;68.70
68764;DHT22;55754;52.038;5.566;2022-07-23T00:23:13;18.10;68.90
68764;DHT22;55754;52.038;5.566;2022-07-23T00:25:38;18.10;68.90
68764;DHT22;55754;52.038;5.566;2022-07-23T00:28:04;18.00;68.90
68764;DHT22;55754;52.038;5.566;2022-07-23T00:30:31;18.00;68.90
68764;DHT22;55754;52.038;5.566;2022-07-23T00:33:02;18.10;68.90
68764;DHT22;55754;52.038;5.566;2022-07-23T00:35:30;18.00;69.10
68764;DHT22;55754;52.038;5.566;2022-07-23T00:37:57;18.00;69.20
68764;DHT22;55754;52.038;5.566;2022-07-23T00:40:23;18.00;69.20
68764;DHT22;55754;52.038;5.566;2022-07-23T00:42:49;17.90;69.30
68764;DHT22;55754;52.038;5.566;2022-07-23T00:45:14;17.90;69.30
68764;DHT22;55754;52.038;5.566;2022-07-23T00:47:40;17.90;69.50
68764;DHT22;55754;52.038;5.566;2022-07-23T00:50:08;17.80;69.60
68764;DHT22;55754;52.038;5.566;2022-07-23T00:52:35;17.80;69.70
68764;DHT22;55754;52.038;5.566;2022-07-23T00:55:02;17.80;69.70
68764;DHT22;55754;52.038;5.566;2022-07-23T00:57:29;17.80;69.80
68764;DHT22;55754;52.038;5.566;2022-07-23T00:59:56;17.80;69.90
68764;DHT22;55754;52.038;5.566;2022-07-23T01:02:24;17.80;69.90
68764;DHT22;55754;52.038;5.566;2022-07-23T01:04:50;17.80;69.90
68764;DHT22;55754;52.038;5.566;2022-07-23T01:07:16;17.80;69.90
68764;DHT22;55754;52.038;5.566;2022-07-23T01:09:43;17.90;70.00
68764;DHT22;55754;52.038;5.566;2022-07-23T01:12:09;17.90;70.10
68764;DHT22;55754;52.038;5.566;2022-07-23T01:14:35;17.80;70.20
68764;DHT22;55754;52.038;5.566;2022-07-23T01:17:00;17.70;70.50
68764;DHT22;55754;52.038;5.566;2022-07-23T01:19:26;17.80;70.30
68764;DHT22;55754;52.038;5.566;2022-07-23T01:21:53;17.80;70.20
68764;DHT22;55754;52.038;5.566;2022-07-23T01:24:20;17.80;70.10
68764;DHT22;55754;52.038;5.566;2022-07-23T01:26:47;17.80;70.10
68764;DHT22;55754;52.038;5.566;2022-07-23T01:29:14;17.80;70.10
68764;DHT22;55754;52.038;5.566;2022-07-23T01:31:40;17.80;70.10
68764;DHT22;55754;52.038;5.566;2022-07-23T01:34:06;17.80;70.30
68764;DHT22;55754;52.038;5.566;2022-07-23T01:36:33;17.80;70.30
68764;DHT22;55754;52.038;5.566;2022-07-23T01:38:59;17.80;70.40
68764;DHT22;55754;52.038;5.566;2022-07-23T01:41:25;17.80;70.40
68764;DHT22;55754;52.038;5.566;2022-07-23T01:43:51;17.80;70.60
68764;DHT22;55754;52.038;5.566;2022-07-23T01:46:16;17.80;71.30
68764;DHT22;55754;52.038;5.566;2022-07-23T01:48:42;17.70;70.70
68764;DHT22;55754;52.038;5.566;2022-07-23T01:51:08;17.80;70.70
68764;DHT22;55754;52.038;5.566;2022-07-23T01:53:34;17.70;70.70
68764;DHT22;55754;52.038;5.566;2022-07-23T01:56:00;17.70;70.80
68764;DHT22;55754;52.038;5.566;2022-07-23T01:58:26;17.60;70.90
68764;DHT22;55754;52.038;5.566;2022-07-23T02:00:53;17.60;70.90
68764;DHT22;55754;52.038;5.566;2022-07-23T02:03:19;17.60;71.00
68764;DHT22;55754;52.038;5.566;2022-07-23T02:05:45;17.60;71.20
68764;DHT22;55754;52.038;5.566;2022-07-23T02:08:10;17.60;71.20
68764;DHT22;55754;52.038;5.566;2022-07-23T02:10:36;17.40;71.50
68764;DHT22;55754;52.038;5.566;2022-07-23T02:13:02;17.30;71.70
68764;DHT22;55754;52.038;5.566;2022-07-23T02:15:27;17.20;71.80
68764;DHT22;55754;52.038;5.566;2022-07-23T02:17:54;17.20;72.00
68764;DHT22;55754;52.038;5.566;2022-07-23T02:20:20;17.20;71.80
68764;DHT22;55754;52.038;5.566;2022-07-23T02:22:45;17.20;71.90
68764;DHT22;55754;52.038;5.566;2022-07-23T02:25:11;17.10;72.10
68764;DHT22;55754;52.038;5.566;2022-07-23T02:27:37;17.20;72.00
68764;DHT22;55754;52.038;5.566;2022-07-23T02:30:03;17.20;71.90
68764;DHT22;55754;52.038;5.566;2022-07-23T02:32:29;17.20;71.90
68764;DHT22;55754;52.038;5.566;2022-07-23T02:34:55;17.20;72.00
68764;DHT22;55754;52.038;5.566;2022-07-23T02:37:21;17.10;72.20
68764;DHT22;55754;52.038;5.566;2022-07-23T02:39:47;17.10;72.20
68764;DHT22;55754;52.038;5.566;2022-07-23T02:42:14;17.10;72.20
68764;DHT22;55754;52.038;5.566;2022-07-23T02:44:40;17.00;72.40
68764;DHT22;55754;52.038;5.566;2022-07-23T02:47:05;16.90;72.50
68764;DHT22;55754;52.038;5.566;2022-07-23T02:49:31;16.90;72.70
68764;DHT22;55754;52.038;5.566;2022-07-23T02:51:57;16.80;72.70
68764;DHT22;55754;52.038;5.566;2022-07-23T02:54:22;16.80;72.90
68764;DHT22;55754;52.038;5.566;2022-07-23T02:56:48;16.80;72.90
68764;DHT22;55754;52.038;5.566;2022-07-23T02:59:16;16.80;72.90
68764;DHT22;55754;52.038;5.566;2022-07-23T03:01:41;16.80;73.00
68764;DHT22;55754;52.038;5.566;2022-07-23T03:04:07;16.80;73.10
68764;DHT22;55754;52.038;5.566;2022-07-23T03:06:33;16.80;73.10
68764;DHT22;55754;52.038;5.566;2022-07-23T03:08:59;16.70;73.10
68764;DHT22;55754;52.038;5.566;2022-07-23T03:11:24;16.70;73.10
68764;DHT22;55754;52.038;5.566;2022-07-23T03:13:50;16.70;73.10
68764;DHT22;55754;52.038;5.566;2022-07-23T03:16:15;16.70;73.10
68764;DHT22;55754;52.038;5.566;2022-07-23T03:18:41;16.70;73.10
68764;DHT22;55754;52.038;5.566;2022-07-23T03:21:07;16.70;73.00
68764;DHT22;55754;52.038;5.566;2022-07-23T03:23:32;16.70;73.00
68764;DHT22;55754;52.038;5.566;2022-07-23T03:25:58;16.60;73.30
68764;DHT22;55754;52.038;5.566;2022-07-23T03:28:24;16.50;73.30
68764;DHT22;55754;52.038;5.566;2022-07-23T03:30:49;16.50;73.40
68764;DHT22;55754;52.038;5.566;2022-07-23T03:33:17;16.50;73.50
68764;DHT22;55754;52.038;5.566;2022-07-23T03:35:47;16.50;73.50
68764;DHT22;55754;52.038;5.566;2022-07-23T03:38:13;16.50;73.60
68764;DHT22;55754;52.038;5.566;2022-07-23T03:40:38;16.50;73.50
68764;DHT22;55754;52.038;5.566;2022-07-23T03:43:04;16.50;73.40
68764;DHT22;55754;52.038;5.566;2022-07-23T03:45:30;16.40;73.60
68764;DHT22;55754;52.038;5.566;2022-07-23T03:47:56;16.40;73.70
68764;DHT22;55754;52.038;5.566;2022-07-23T03:50:22;16.40;73.50
68764;DHT22;55754;52.038;5.566;2022-07-23T03:52:48;16.40;73.60
68764;DHT22;55754;52.038;5.566;2022-07-23T03:55:14;16.40;73.90
68764;DHT22;55754;52.038;5.566;2022-07-23T03:57:40;16.40;73.40
68764;DHT22;55754;52.038;5.566;2022-07-23T04:00:06;16.40;73.40
68764;DHT22;55754;52.038;5.566;2022-07-23T04:02:34;16.40;73.30
68764;DHT22;55754;52.038;5.566;2022-07-23T04:05:00;16.40;73.40
68764;DHT22;55754;52.038;5.566;2022-07-23T04:07:26;16.40;73.50
68764;DHT22;55754;52.038;5.566;2022-07-23T04:09:52;16.40;73.50
68764;DHT22;55754;52.038;5.566;2022-07-23T04:12:17;16.40;73.50
68764;DHT22;55754;52.038;5.566;2022-07-23T04:14:43;16.40;73.50
68764;DHT22;55754;52.038;5.566;2022-07-23T04:17:09;16.40;73.60
68764;DHT22;55754;52.038;5.566;2022-07-23T04:19:35;16.40;73.60
68764;DHT22;55754;52.038;5.566;2022-07-23T04:22:06;16.30;73.60
68764;DHT22;55754;52.038;5.566;2022-07-23T04:24:32;16.30;73.70
68764;DHT22;55754;52.038;5.566;2022-07-23T04:26:57;16.30;73.80
68764;DHT22;55754;52.038;5.566;2022-07-23T04:29:23;16.30;73.70
68764;DHT22;55754;52.038;5.566;2022-07-23T04:31:49;16.30;73.80
68764;DHT22;55754;52.038;5.566;2022-07-23T04:34:15;16.30;73.90
68764;DHT22;55754;52.038;5.566;2022-07-23T04:36:41;16.30;74.00
68764;DHT22;55754;52.038;5.566;2022-07-23T04:39:06;16.30;74.20
68764;DHT22;55754;52.038;5.566;2022-07-23T04:41:32;16.20;74.40
68764;DHT22;55754;52.038;5.566;2022-07-23T04:44:00;16.40;74.40
68764;DHT22;55754;52.038;5.566;2022-07-23T04:46:26;16.40;74.30
68764;DHT22;55754;52.038;5.566;2022-07-23T04:48:51;16.40;74.20
68764;DHT22;55754;52.038;5.566;2022-07-23T04:51:17;16.40;74.20
68764;DHT22;55754;52.038;5.566;2022-07-23T04:53:43;16.40;74.30
68764;DHT22;55754;52.038;5.566;2022-07-23T04:56:08;16.50;74.40
68764;DHT22;55754;52.038;5.566;2022-07-23T04:58:34;16.40;74.40
68764;DHT22;55754;52.038;5.566;2022-07-23T05:01:00;16.50;74.30
68764;DHT22;55754;52.038;5.566;2022-07-23T05:03:25;16.50;74.30
68764;DHT22;55754;52.038;5.566;2022-07-23T05:05:51;16.60;74.20
68764;DHT22;55754;52.038;5.566;2022-07-23T05:08:17;16.60;74.20
68764;DHT22;55754;52.038;5.566;2022-07-23T05:10:42;16.70;74.10
68764;DHT22;55754;52.038;5.566;2022-07-23T05:13:08;16.70;74.10
68764;DHT22;55754;52.038;5.566;2022-07-23T05:15:34;16.70;74.00
68764;DHT22;55754;52.038;5.566;2022-07-23T05:17:59;16.80;74.00
68764;DHT22;55754;52.038;5.566;2022-07-23T05:20:25;16.80;74.00
68764;DHT22;55754;52.038;5.566;2022-07-23T05:22:51;16.90;74.00
68764;DHT22;55754;52.038;5.566;2022-07-23T05:25:17;16.90;73.80
68764;DHT22;55754;52.038;5.566;2022-07-23T05:27:42;16.90;73.80
68764;DHT22;55754;52.038;5.566;2022-07-23T05:30:09;17.00;73.80
68764;DHT22;55754;52.038;5.566;2022-07-23T05:32:35;17.00;73.70
68764;DHT22;55754;52.038;5.566;2022-07-23T05:35:03;17.00;73.80
68764;DHT22;55754;52.038;5.566;2022-07-23T05:37:28;17.10;73.60
68764;DHT22;55754;52.038;5.566;2022-07-23T05:39:54;17.10;73.40
68764;DHT22;55754;52.038;5.566;2022-07-23T05:42:20;17.20;73.40
68764;DHT22;55754;52.038;5.566;2022-07-23T05:44:45;17.20;73.20
68764;DHT22;55754;52.038;5.566;2022-07-23T05:47:11;17.30;73.00
68764;DHT22;55754;52.038;5.566;2022-07-23T05:49:37;17.30;72.70
68764;DHT22;55754;52.038;5.566;2022-07-23T05:52:05;17.40;72.60
68764;DHT22;55754;52.038;5.566;2022-07-23T05:54:30;17.40;72.50
68764;DHT22;55754;52.038;5.566;2022-07-23T05:56:56;17.50;72.30
68764;DHT22;55754;52.038;5.566;2022-07-23T05:59:22;17.50;72.00
68764;DHT22;55754;52.038;5.566;2022-07-23T06:01:47;17.60;71.70
68764;DHT22;55754;52.038;5.566;2022-07-23T06:04:13;17.70;71.40
68764;DHT22;55754;52.038;5.566;2022-07-23T06:06:39;17.80;71.10
68764;DHT22;55754;52.038;5.566;2022-07-23T06:09:04;17.90;71.00
68764;DHT22;55754;52.038;5.566;2022-07-23T06:11:30;18.00;70.60
68764;DHT22;55754;52.038;5.566;2022-07-23T06:13:56;18.10;70.40
68764;DHT22;55754;52.038;5.566;2022-07-23T06:16:21;18.20;70.20
68764;DHT22;55754;52.038;5.566;2022-07-23T06:18:47;18.40;69.80
68764;DHT22;55754;52.038;5.566;2022-07-23T06:21:12;18.50;69.20
68764;DHT22;55754;52.038;5.566;2022-07-23T06:23:38;18.60;68.90
68764;DHT22;55754;52.038;5.566;2022-07-23T06:26:04;18.80;68.60
68764;DHT22;55754;52.038;5.566;2022-07-23T06:28:29;19.00;68.00
68764;DHT22;55754;52.038;5.566;2022-07-23T06:30:55;19.20;67.50
68764;DHT22;55754;52.038;5.566;2022-07-23T06:33:21;19.30;66.90
68764;DHT22;55754;52.038;5.566;2022-07-23T06:35:46;19.40;66.60
68764;DHT22;55754;52.038;5.566;2022-07-23T06:38:12;19.60;65.80
68764;DHT22;55754;52.038;5.566;2022-07-23T06:40:38;19.70;65.70
68764;DHT22;55754;52.038;5.566;2022-07-23T06:43:03;19.90;65.50
68764;DHT22;55754;52.038;5.566;2022-07-23T06:45:29;20.10;65.00
68764;DHT22;55754;52.038;5.566;2022-07-23T06:47:55;20.10;64.50
68764;DHT22;55754;52.038;5.566;2022-07-23T06:50:20;20.30;64.00
68764;DHT22;55754;52.038;5.566;2022-07-23T06:52:46;20.50;63.80
68764;DHT22;55754;52.038;5.566;2022-07-23T06:55:12;20.70;63.30
68764;DHT22;55754;52.038;5.566;2022-07-23T06:57:38;20.70;63.30
68764;DHT22;55754;52.038;5.566;2022-07-23T07:00:04;21.00;63.00
68764;DHT22;55754;52.038;5.566;2022-07-23T07:02:30;21.20;62.20
68764;DHT22;55754;52.038;5.566;2022-07-23T07:04:56;21.10;61.80
68764;DHT22;55754;52.038;5.566;2022-07-23T07:07:22;21.20;61.50
68764;DHT22;55754;52.038;5.566;2022-07-23T07:09:47;21.30;61.20
68764;DHT22;55754;52.038;5.566;2022-07-23T07:12:13;21.40;61.10
68764;DHT22;55754;52.038;5.566;2022-07-23T07:14:39;21.50;60.70
68764;DHT22;55754;52.038;5.566;2022-07-23T07:17:04;21.60;60.70
68764;DHT22;55754;52.038;5.566;2022-07-23T07:19:30;21.40;60.30
68764;DHT22;55754;52.038;5.566;2022-07-23T07:21:55;21.50;60.00
68764;DHT22;55754;52.038;5.566;2022-07-23T07:24:21;21.70;59.20
68764;DHT22;55754;52.038;5.566;2022-07-23T07:26:47;21.80;58.60
68764;DHT22;55754;52.038;5.566;2022-07-23T07:29:12;22.00;58.70
68764;DHT22;55754;52.038;5.566;2022-07-23T07:31:38;22.10;59.00
68764;DHT22;55754;52.038;5.566;2022-07-23T07:34:04;22.20;57.90
68764;DHT22;55754;52.038;5.566;2022-07-23T07:36:29;22.10;57.70
68764;DHT22;55754;52.038;5.566;2022-07-23T07:38:55;22.30;57.80
68764;DHT22;55754;52.038;5.566;2022-07-23T07:41:21;22.40;57.00
68764;DHT22;55754;52.038;5.566;2022-07-23T07:43:49;22.70;56.00
68764;DHT22;55754;52.038;5.566;2022-07-23T07:46:15;22.80;56.00
68764;DHT22;55754;52.038;5.566;2022-07-23T07:48:41;23.00;55.20
68764;DHT22;55754;52.038;5.566;2022-07-23T07:51:07;23.00;55.50
68764;DHT22;55754;52.038;5.566;2022-07-23T07:53:33;22.80;54.90
68764;DHT22;55754;52.038;5.566;2022-07-23T07:55:58;22.60;55.40
68764;DHT22;55754;52.038;5.566;2022-07-23T07:58:24;22.30;56.40
68764;DHT22;55754;52.038;5.566;2022-07-23T08:00:49;22.10;57.30
68764;DHT22;55754;52.038;5.566;2022-07-23T08:03:17;22.30;57.20
68764;DHT22;55754;52.038;5.566;2022-07-23T08:05:43;22.50;56.80
68764;DHT22;55754;52.038;5.566;2022-07-23T08:08:08;22.70;56.10
68764;DHT22;55754;52.038;5.566;2022-07-23T08:10:40;23.00;55.50
68764;DHT22;55754;52.038;5.566;2022-07-23T08:13:05;23.30;55.20
68764;DHT22;55754;52.038;5.566;2022-07-23T08:15:31;23.40;54.60
68764;DHT22;55754;52.038;5.566;2022-07-23T08:17:57;23.20;54.20
68764;DHT22;55754;52.038;5.566;2022-07-23T08:20:24;23.20;54.10
68764;DHT22;55754;52.038;5.566;2022-07-23T08:23:08;23.20;54.00
68764;DHT22;55754;52.038;5.566;2022-07-23T08:25:39;23.40;53.70
68764;DHT22;55754;52.038;5.566;2022-07-23T08:28:07;23.80;53.10
68764;DHT22;55754;52.038;5.566;2022-07-23T08:30:34;24.20;50.90
68764;DHT22;55754;52.038;5.566;2022-07-23T08:37:56;24.70;50.40
68764;DHT22;55754;52.038;5.566;2022-07-23T08:40:23;24.70;50.70
68764;DHT22;55754;52.038;5.566;2022-07-23T08:42:51;24.60;50.00
68764;DHT22;55754;52.038;5.566;2022-07-23T08:45:18;24.70;49.70
68764;DHT22;55754;52.038;5.566;2022-07-23T08:47:48;25.10;49.10
68764;DHT22;55754;52.038;5.566;2022-07-23T08:50:14;25.20;47.90
68764;DHT22;55754;52.038;5.566;2022-07-23T08:52:40;24.90;48.30
68764;DHT22;55754;52.038;5.566;2022-07-23T08:55:07;25.20;48.60
68764;DHT22;55754;52.038;5.566;2022-07-23T08:57:33;25.50;47.90
68764;DHT22;55754;52.038;5.566;2022-07-23T08:59:59;25.60;46.80
68764;DHT22;55754;52.038;5.566;2022-07-23T09:02:24;25.70;46.60
68764;DHT22;55754;52.038;5.566;2022-07-23T09:04:50;25.50;47.30
68764;DHT22;55754;52.038;5.566;2022-07-23T09:07:16;25.40;47.50
68764;DHT22;55754;52.038;5.566;2022-07-23T09:09:41;25.30;47.50
68764;DHT22;55754;52.038;5.566;2022-07-23T09:12:09;25.30;47.40
68764;DHT22;55754;52.038;5.566;2022-07-23T09:14:40;25.30;47.50
68764;DHT22;55754;52.038;5.566;2022-07-23T09:17:24;25.20;47.10
68764;DHT22;55754;52.038;5.566;2022-07-23T09:19:49;25.10;47.30
68764;DHT22;55754;52.038;5.566;2022-07-23T09:22:25;25.00;47.20
68764;DHT22;55754;52.038;5.566;2022-07-23T09:25:08;24.90;47.40
68764;DHT22;55754;52.038;5.566;2022-07-23T09:30:41;24.60;47.50
68764;DHT22;55754;52.038;5.566;2022-07-23T09:33:14;24.50;47.60
68764;DHT22;55754;52.038;5.566;2022-07-23T09:35:55;24.40;48.00
68764;DHT22;55754;52.038;5.566;2022-07-23T09:38:23;24.40;48.20
68764;DHT22;55754;52.038;5.566;2022-07-23T09:41:08;24.20;48.30
68764;DHT22;55754;52.038;5.566;2022-07-23T09:43:34;24.10;48.70
68764;DHT22;55754;52.038;5.566;2022-07-23T09:46:32;24.10;48.70
68764;DHT22;55754;52.038;5.566;2022-07-23T09:48:58;24.10;48.30
68764;DHT22;55754;52.038;5.566;2022-07-23T09:51:44;24.10;48.60
68764;DHT22;55754;52.038;5.566;2022-07-23T09:54:34;24.10;48.30
68764;DHT22;55754;52.038;5.566;2022-07-23T09:57:06;24.00;48.80
68764;DHT22;55754;52.038;5.566;2022-07-23T09:59:38;24.00;48.90
68764;DHT22;55754;52.038;5.566;2022-07-23T10:02:06;24.10;48.90
68764;DHT22;55754;52.038;5.566;2022-07-23T10:04:33;23.90;49.10
68764;DHT22;55754;52.038;5.566;2022-07-23T10:07:01;23.90;49.00
68764;DHT22;55754;52.038;5.566;2022-07-23T10:09:37;23.90;49.10
68764;DHT22;55754;52.038;5.566;2022-07-23T10:12:05;23.90;49.50
68764;DHT22;55754;52.038;5.566;2022-07-23T10:14:40;23.90;49.50
68764;DHT22;55754;52.038;5.566;2022-07-23T10:17:06;23.90;49.10
68764;DHT22;55754;52.038;5.566;2022-07-23T10:19:33;23.90;48.90
68764;DHT22;55754;52.038;5.566;2022-07-23T10:27:33;23.90;49.00
68764;DHT22;55754;52.038;5.566;2022-07-23T10:30:07;24.00;48.90
68764;DHT22;55754;52.038;5.566;2022-07-23T10:37:48;24.00;48.60
68764;DHT22;55754;52.038;5.566;2022-07-23T10:40:19;24.00;49.20
68764;DHT22;55754;52.038;5.566;2022-07-23T10:42:48;24.00;48.90
68764;DHT22;55754;52.038;5.566;2022-07-23T10:45:33;24.00;48.60
68764;DHT22;55754;52.038;5.566;2022-07-23T10:48:15;24.00;48.50
68764;DHT22;55754;52.038;5.566;2022-07-23T10:50:42;24.00;48.60
68764;DHT22;55754;52.038;5.566;2022-07-23T10:53:16;24.10;49.00
68764;DHT22;55754;52.038;5.566;2022-07-23T10:55:51;24.10;48.60
68764;DHT22;55754;52.038;5.566;2022-07-23T10:58:22;24.10;48.10
68764;DHT22;55754;52.038;5.566;2022-07-23T11:00:48;24.10;48.70
68764;DHT22;55754;52.038;5.566;2022-07-23T11:03:34;24.10;48.70
68764;DHT22;55754;52.038;5.566;2022-07-23T11:06:05;24.10;49.50
68764;DHT22;55754;52.038;5.566;2022-07-23T11:08:30;24.10;48.70
68764;DHT22;55754;52.038;5.566;2022-07-23T11:18:53;24.10;49.40
68764;DHT22;55754;52.038;5.566;2022-07-23T11:34:46;24.30;48.30
68764;DHT22;55754;52.038;5.566;2022-07-23T11:37:39;24.30;47.90
68764;DHT22;55754;52.038;5.566;2022-07-23T11:40:13;24.30;48.20
68764;DHT22;55754;52.038;5.566;2022-07-23T11:43:00;24.40;48.30
68764;DHT22;55754;52.038;5.566;2022-07-23T11:45:32;24.50;48.20
68764;DHT22;55754;52.038;5.566;2022-07-23T11:47:58;24.60;48.40
68764;DHT22;55754;52.038;5.566;2022-07-23T11:50:24;24.60;48.10
68764;DHT22;55754;52.038;5.566;2022-07-23T11:52:53;24.70;47.80
68764;DHT22;55754;52.038;5.566;2022-07-23T11:55:19;24.70;47.00
68764;DHT22;55754;52.038;5.566;2022-07-23T11:57:45;24.70;48.20
68764;DHT22;55754;52.038;5.566;2022-07-23T12:02:41;24.80;46.60
68764;DHT22;55754;52.038;5.566;2022-07-23T12:05:12;24.80;46.50
68764;DHT22;55754;52.038;5.566;2022-07-23T12:07:41;24.90;47.00
68764;DHT22;55754;52.038;5.566;2022-07-23T12:10:13;25.10;47.10
68764;DHT22;55754;52.038;5.566;2022-07-23T12:12:41;25.20;46.80
68764;DHT22;55754;52.038;5.566;2022-07-23T12:15:11;25.20;46.20
68764;DHT22;55754;52.038;5.566;2022-07-23T12:17:39;25.20;45.80
68764;DHT22;55754;52.038;5.566;2022-07-23T12:20:07;25.20;45.90
68764;DHT22;55754;52.038;5.566;2022-07-23T12:22:35;25.40;46.20
68764;DHT22;55754;52.038;5.566;2022-07-23T12:25:07;25.50;45.70
68764;DHT22;55754;52.038;5.566;2022-07-23T12:27:33;25.50;45.60
68764;DHT22;55754;52.038;5.566;2022-07-23T12:30:21;25.60;45.80
68764;DHT22;55754;52.038;5.566;2022-07-23T12:32:49;25.60;45.00
68764;DHT22;55754;52.038;5.566;2022-07-23T12:35:15;25.60;45.00
68764;DHT22;55754;52.038;5.566;2022-07-23T12:37:43;25.50;45.20
68764;DHT22;55754;52.038;5.566;2022-07-23T12:43:06;25.60;45.20
68764;DHT22;55754;52.038;5.566;2022-07-23T12:45:53;25.70;45.60
68764;DHT22;55754;52.038;5.566;2022-07-23T12:48:27;25.80;44.90
68764;DHT22;55754;52.038;5.566;2022-07-23T12:50:58;25.80;45.20
68764;DHT22;55754;52.038;5.566;2022-07-23T12:56:08;26.00;45.40
68764;DHT22;55754;52.038;5.566;2022-07-23T12:59:14;26.00;45.40
68764;DHT22;55754;52.038;5.566;2022-07-23T13:02:00;25.90;45.30
68764;DHT22;55754;52.038;5.566;2022-07-23T13:04:26;25.90;45.30
68764;DHT22;55754;52.038;5.566;2022-07-23T13:06:57;25.90;45.40
68764;DHT22;55754;52.038;5.566;2022-07-23T13:09:26;26.00;45.40
68764;DHT22;55754;52.038;5.566;2022-07-23T13:11:54;26.10;45.90
68764;DHT22;55754;52.038;5.566;2022-07-23T13:14:20;26.20;46.00
68764;DHT22;55754;52.038;5.566;2022-07-23T13:16:46;26.20;45.70
68764;DHT22;55754;52.038;5.566;2022-07-23T13:19:13;26.10;45.40
68764;DHT22;55754;52.038;5.566;2022-07-23T13:21:40;26.00;45.30
68764;DHT22;55754;52.038;5.566;2022-07-23T13:24:06;26.00;45.10
68764;DHT22;55754;52.038;5.566;2022-07-23T13:26:32;25.90;45.20
68764;DHT22;55754;52.038;5.566;2022-07-23T13:28:58;25.80;45.40
68764;DHT22;55754;52.038;5.566;2022-07-23T13:31:24;25.80;44.90
68764;DHT22;55754;52.038;5.566;2022-07-23T13:33:49;25.80;45.00
68764;DHT22;55754;52.038;5.566;2022-07-23T13:36:15;25.60;45.00
68764;DHT22;55754;52.038;5.566;2022-07-23T13:38:41;25.50;45.00
68764;DHT22;55754;52.038;5.566;2022-07-23T13:41:07;25.40;45.10
68764;DHT22;55754;52.038;5.566;2022-07-23T13:43:32;25.30;45.10
68764;DHT22;55754;52.038;5.566;2022-07-23T13:45:59;25.30;45.10
68764;DHT22;55754;52.038;5.566;2022-07-23T13:48:25;25.40;45.10
68764;DHT22;55754;52.038;5.566;2022-07-23T13:50:51;25.30;45.20
68764;DHT22;55754;52.038;5.566;2022-07-23T13:53:19;25.40;45.10
68764;DHT22;55754;52.038;5.566;2022-07-23T13:55:46;25.30;45.10
68764;DHT22;55754;52.038;5.566;2022-07-23T13:58:12;25.40;45.30
68764;DHT22;55754;52.038;5.566;2022-07-23T14:00:41;25.40;45.30
68764;DHT22;55754;52.038;5.566;2022-07-23T14:03:07;25.50;45.30
68764;DHT22;55754;52.038;5.566;2022-07-23T14:05:33;25.50;45.30
68764;DHT22;55754;52.038;5.566;2022-07-23T14:07:59;25.60;45.10
68764;DHT22;55754;52.038;5.566;2022-07-23T14:10:25;25.60;45.20
68764;DHT22;55754;52.038;5.566;2022-07-23T14:12:52;25.60;45.30
68764;DHT22;55754;52.038;5.566;2022-07-23T14:15:26;25.70;45.40
68764;DHT22;55754;52.038;5.566;2022-07-23T14:17:52;25.80;45.30
68764;DHT22;55754;52.038;5.566;2022-07-23T14:20:19;25.80;45.10
68764;DHT22;55754;52.038;5.566;2022-07-23T14:22:44;25.80;45.10
68764;DHT22;55754;52.038;5.566;2022-07-23T14:25:11;25.80;45.30
68764;DHT22;55754;52.038;5.566;2022-07-23T14:27:37;25.80;45.10
68764;DHT22;55754;52.038;5.566;2022-07-23T14:30:05;25.80;45.00
68764;DHT22;55754;52.038;5.566;2022-07-23T14:32:31;25.90;45.10
68764;DHT22;55754;52.038;5.566;2022-07-23T14:34:57;25.80;44.80
68764;DHT22;55754;52.038;5.566;2022-07-23T14:37:23;25.80;44.80
68764;DHT22;55754;52.038;5.566;2022-07-23T14:39:50;25.70;44.80
68764;DHT22;55754;52.038;5.566;2022-07-23T14:42:16;25.80;45.20
68764;DHT22;55754;52.038;5.566;2022-07-23T14:44:41;25.80;45.00
68764;DHT22;55754;52.038;5.566;2022-07-23T14:47:08;25.80;44.70
68764;DHT22;55754;52.038;5.566;2022-07-23T14:49:34;25.80;44.70
68764;DHT22;55754;52.038;5.566;2022-07-23T14:52:01;25.80;44.60
68764;DHT22;55754;52.038;5.566;2022-07-23T14:54:27;25.80;44.50
68764;DHT22;55754;52.038;5.566;2022-07-23T14:56:54;25.90;44.60
68764;DHT22;55754;52.038;5.566;2022-07-23T14:59:20;25.90;44.50
68764;DHT22;55754;52.038;5.566;2022-07-23T15:01:46;25.90;44.50
68764;DHT22;55754;52.038;5.566;2022-07-23T15:04:12;25.90;44.60
68764;DHT22;55754;52.038;5.566;2022-07-23T15:06:37;25.90;44.50
68764;DHT22;55754;52.038;5.566;2022-07-23T15:09:04;25.90;44.90
68764;DHT22;55754;52.038;5.566;2022-07-23T15:11:30;25.90;44.70
68764;DHT22;55754;52.038;5.566;2022-07-23T15:13:59;26.00;44.80
68764;DHT22;55754;52.038;5.566;2022-07-23T15:16:25;25.90;44.60
68764;DHT22;55754;52.038;5.566;2022-07-23T15:18:51;25.90;44.30
68764;DHT22;55754;52.038;5.566;2022-07-23T15:21:16;25.90;44.30
68764;DHT22;55754;52.038;5.566;2022-07-23T15:23:42;25.90;44.20
68764;DHT22;55754;52.038;5.566;2022-07-23T15:26:08;25.90;44.20
68764;DHT22;55754;52.038;5.566;2022-07-23T15:28:34;25.90;44.30
68764;DHT22;55754;52.038;5.566;2022-07-23T15:31:00;26.00;44.50
68764;DHT22;55754;52.038;5.566;2022-07-23T15:33:26;26.00;44.40
68764;DHT22;55754;52.038;5.566;2022-07-23T15:35:54;26.00;44.40
68764;DHT22;55754;52.038;5.566;2022-07-23T15:38:21;26.10;44.20
68764;DHT22;55754;52.038;5.566;2022-07-23T15:40:47;26.20;44.10
68764;DHT22;55754;52.038;5.566;2022-07-23T15:43:13;26.20;45.30
68764;DHT22;55754;52.038;5.566;2022-07-23T15:45:39;26.20;44.30
68764;DHT22;55754;52.038;5.566;2022-07-23T15:48:05;26.10;44.30
68764;DHT22;55754;52.038;5.566;2022-07-23T15:50:31;26.20;44.20
68764;DHT22;55754;52.038;5.566;2022-07-23T15:52:57;26.20;44.30
68764;DHT22;55754;52.038;5.566;2022-07-23T15:55:23;26.20;44.10
68764;DHT22;55754;52.038;5.566;2022-07-23T15:57:49;26.20;44.10
68764;DHT22;55754;52.038;5.566;2022-07-23T16:00:15;26.20;44.30
68764;DHT22;55754;52.038;5.566;2022-07-23T16:02:41;26.20;44.80
68764;DHT22;55754;52.038;5.566;2022-07-23T16:05:07;26.20;44.00
68764;DHT22;55754;52.038;5.566;2022-07-23T16:07:51;26.20;43.30
68764;DHT22;55754;52.038;5.566;2022-07-23T16:10:17;26.20;43.30
68764;DHT22;55754;52.038;5.566;2022-07-23T16:12:43;26.20;43.30
68764;DHT22;55754;52.038;5.566;2022-07-23T16:15:09;26.10;42.90
68764;DHT22;55754;52.038;5.566;2022-07-23T16:17:35;26.00;42.70
68764;DHT22;55754;52.038;5.566;2022-07-23T16:20:00;26.00;43.00